sensor_id;sensor_type;location;lat;lon;timestamp;pressure;altitude;pressure_sealevel;temperature;humidity
47815;BME280;33579;50.058;18.130;2023-04-28T00:00:00;99695.78;;;5.46;94.69
47815;BME280;33579;50.058;18.130;2023-04-28T00:01:05;99695.84;;;5.45;94.37
47815;BME280;33579;50.058;18.130;2023-04-28T00:02:07;99695.03;;;5.44;94.16
47815;BME280;33579;50.058;18.130;2023-04-28T00:03:08;99696.03;;;5.42;94.32
47815;BME280;33579;50.058;18.130;2023-04-28T00:04:10;99692.84;;;5.37;94.63
47815;BME280;33579;50.058;18.130;2023-04-28T00:05:12;99693.69;;;5.37;94.62
47815;BME280;33579;50.058;18.130;2023-04-28T00:06:14;99693.69;;;5.37;94.72
47815;BME280;33579;50.058;18.130;2023-04-28T00:07:15;99695.53;;;5.35;94.87
47815;BME280;33579;50.058;18.130;2023-04-28T00:08:17;99691.25;;;5.34;94.84
47815;BME280;33579;50.058;18.130;2023-04-28T00:09:19;99689.72;;;5.30;95.26
47815;BME280;33579;50.058;18.130;2023-04-28T00:10:20;99694.13;;;5.29;95.54
47815;BME280;33579;50.058;18.130;2023-04-28T00:11:22;99696.81;;;5.28;95.73
47815;BME280;33579;50.058;18.130;2023-04-28T00:12:23;99695.13;;;5.27;96.20
47815;BME280;33579;50.058;18.130;2023-04-28T00:13:25;99697.50;;;5.31;96.28
47815;BME280;33579;50.058;18.130;2023-04-28T00:14:27;99693.50;;;5.40;96.73
47815;BME280;33579;50.058;18.130;2023-04-28T00:15:29;99694.44;;;5.39;97.17
47815;BME280;33579;50.058;18.130;2023-04-28T00:16:30;99691.84;;;5.23;97.35
47815;BME280;33579;50.058;18.130;2023-04-28T00:17:32;99694.16;;;4.97;99.03
47815;BME280;33579;50.058;18.130;2023-04-28T00:18:34;99688.63;;;4.87;100.00
47815;BME280;33579;50.058;18.130;2023-04-28T00:19:36;99685.03;;;4.74;100.00
47815;BME280;33579;50.058;18.130;2023-04-28T00:20:37;99697.63;;;4.66;100.00
47815;BME280;33579;50.058;18.130;2023-04-28T00:21:39;99694.16;;;4.49;100.00
47815;BME280;33579;50.058;18.130;2023-04-28T00:22:40;99694.25;;;4.47;100.00
47815;BME280;33579;50.058;18.130;2023-04-28T00:23:42;99696.94;;;4.46;100.00
47815;BME280;33579;50.058;18.130;2023-04-28T00:24:44;99701.72;;;4.38;100.00
47815;BME280;33579;50.058;18.130;2023-04-28T00:25:53;99703.19;;;4.26;100.00
47815;BME280;33579;50.058;18.130;2023-04-28T00:26:55;99692.63;;;4.29;100.00
47815;BME280;33579;50.058;18.130;2023-04-28T00:27:57;99693.97;;;4.36;100.00
47815;BME280;33579;50.058;18.130;2023-04-28T00:28:58;99690.31;;;4.40;100.00
47815;BME280;33579;50.058;18.130;2023-04-28T00:30:00;99699.03;;;4.39;100.00
47815;BME280;33579;50.058;18.130;2023-04-28T00:31:09;99697.25;;;4.40;100.00
47815;BME280;33579;50.058;18.130;2023-04-28T00:32:11;99701.69;;;4.21;100.00
47815;BME280;33579;50.058;18.130;2023-04-28T00:33:12;99697.22;;;4.24;100.00
47815;BME280;33579;50.058;18.130;2023-04-28T00:34:14;99693.63;;;4.26;100.00
47815;BME280;33579;50.058;18.130;2023-04-28T00:35:16;99691.53;;;4.33;100.00
47815;BME280;33579;50.058;18.130;2023-04-28T00:36:18;99696.25;;;4.42;100.00
47815;BME280;33579;50.058;18.130;2023-04-28T00:37:19;99696.16;;;4.44;100.00
47815;BME280;33579;50.058;18.130;2023-04-28T00:38:21;99694.41;;;4.44;100.00
47815;BME280;33579;50.058;18.130;2023-04-28T00:39:22;99692.66;;;4.45;100.00
47815;BME280;33579;50.058;18.130;2023-04-28T00:40:33;99695.16;;;4.46;100.00
47815;BME280;33579;50.058;18.130;2023-04-28T00:41:35;99699.38;;;4.49;100.00
47815;BME280;33579;50.058;18.130;2023-04-28T00:42:36;99699.13;;;4.54;100.00
47815;BME280;33579;50.058;18.130;2023-04-28T00:43:48;99692.66;;;4.61;100.00
47815;BME280;33579;50.058;18.130;2023-04-28T00:44:50;99696.63;;;4.68;100.00
47815;BME280;33579;50.058;18.130;2023-04-28T00:45:52;99693.84;;;4.71;100.00
47815;BME280;33579;50.058;18.130;2023-04-28T00:46:53;99693.53;;;4.77;100.00
47815;BME280;33579;50.058;18.130;2023-04-28T00:47:56;99695.53;;;4.72;100.00
47815;BME280;33579;50.058;18.130;2023-04-28T00:48:59;99688.81;;;4.68;100.00
47815;BME280;33579;50.058;18.130;2023-04-28T00:50:01;99696.94;;;4.62;100.00
47815;BME280;33579;50.058;18.130;2023-04-28T00:51:02;99695.25;;;4.61;99.90
47815;BME280;33579;50.058;18.130;2023-04-28T00:52:05;99693.69;;;4.58;99.67
47815;BME280;33579;50.058;18.130;2023-04-28T00:53:07;99691.91;;;4.59;99.63
47815;BME280;33579;50.058;18.130;2023-04-28T00:54:12;99695.44;;;4.58;100.00
47815;BME280;33579;50.058;18.130;2023-04-28T00:55:15;99699.47;;;4.63;100.00
47815;BME280;33579;50.058;18.130;2023-04-28T00:56:17;99693.25;;;4.66;100.00
47815;BME280;33579;50.058;18.130;2023-04-28T00:57:19;99688.19;;;4.63;100.00
47815;BME280;33579;50.058;18.130;2023-04-28T00:58:22;99692.22;;;4.69;99.77
47815;BME280;33579;50.058;18.130;2023-04-28T00:59:24;99690.31;;;4.72;99.23
47815;BME280;33579;50.058;18.130;2023-04-28T01:00:26;99697.31;;;4.72;98.87
47815;BME280;33579;50.058;18.130;2023-04-28T01:01:28;99691.34;;;4.70;98.77
47815;BME280;33579;50.058;18.130;2023-04-28T01:02:29;99695.63;;;4.71;98.46
47815;BME280;33579;50.058;18.130;2023-04-28T01:03:34;99690.66;;;4.66;98.33
47815;BME280;33579;50.058;18.130;2023-04-28T01:04:36;99695.88;;;4.66;98.56
47815;BME280;33579;50.058;18.130;2023-04-28T01:05:38;99692.50;;;4.64;98.15
47815;BME280;33579;50.058;18.130;2023-04-28T01:06:41;99696.88;;;4.63;98.38
47815;BME280;33579;50.058;18.130;2023-04-28T01:07:44;99698.78;;;4.60;98.72
47815;BME280;33579;50.058;18.130;2023-04-28T01:08:48;99694.94;;;4.51;99.34
47815;BME280;33579;50.058;18.130;2023-04-28T01:09:51;99699.44;;;4.47;99.98
47815;BME280;33579;50.058;18.130;2023-04-28T01:10:58;99695.34;;;4.43;100.00
47815;BME280;33579;50.058;18.130;2023-04-28T01:12:28;99695.41;;;4.42;100.00
47815;BME280;33579;50.058;18.130;2023-04-28T01:13:31;99696.94;;;4.46;100.00
47815;BME280;33579;50.058;18.130;2023-04-28T01:14:32;99697.72;;;4.48;100.00
47815;BME280;33579;50.058;18.130;2023-04-28T01:15:34;99695.91;;;4.48;100.00
47815;BME280;33579;50.058;18.130;2023-04-28T01:16:37;99702.50;;;4.56;100.00
47815;BME280;33579;50.058;18.130;2023-04-28T01:17:39;99693.75;;;4.57;100.00
47815;BME280;33579;50.058;18.130;2023-04-28T01:18:46;99689.41;;;4.57;100.00
47815;BME280;33579;50.058;18.130;2023-04-28T01:19:48;99693.81;;;4.55;100.00
47815;BME280;33579;50.058;18.130;2023-04-28T01:20:50;99687.97;;;4.52;100.00
47815;BME280;33579;50.058;18.130;2023-04-28T01:21:52;99692.38;;;4.49;100.00
47815;BME280;33579;50.058;18.130;2023-04-28T01:22:55;99692.00;;;4.57;100.00
47815;BME280;33579;50.058;18.130;2023-04-28T01:23:57;99690.66;;;4.66;100.00
47815;BME280;33579;50.058;18.130;2023-04-28T01:24:59;99693.00;;;4.71;99.34
47815;BME280;33579;50.058;18.130;2023-04-28T01:26:01;99689.22;;;4.76;98.32
47815;BME280;33579;50.058;18.130;2023-04-28T01:27:04;99694.69;;;4.72;98.31
47815;BME280;33579;50.058;18.130;2023-04-28T01:28:05;99697.06;;;4.76;98.08
47815;BME280;33579;50.058;18.130;2023-04-28T01:29:07;99693.00;;;4.71;98.38
47815;BME280;33579;50.058;18.130;2023-04-28T01:30:09;99689.56;;;4.70;98.54
47815;BME280;33579;50.058;18.130;2023-04-28T01:31:11;99698.38;;;4.68;98.55
47815;BME280;33579;50.058;18.130;2023-04-28T01:32:13;99694.25;;;4.63;98.83
47815;BME280;33579;50.058;18.130;2023-04-28T01:33:14;99698.72;;;4.61;99.16
47815;BME280;33579;50.058;18.130;2023-04-28T01:34:16;99694.44;;;4.60;99.33
47815;BME280;33579;50.058;18.130;2023-04-28T01:35:18;99702.31;;;4.59;99.50
47815;BME280;33579;50.058;18.130;2023-04-28T01:36:19;99684.84;;;4.61;99.25
47815;BME280;33579;50.058;18.130;2023-04-28T01:37:21;99696.88;;;4.63;99.52
47815;BME280;33579;50.058;18.130;2023-04-28T01:38:23;99692.59;;;4.62;99.58
47815;BME280;33579;50.058;18.130;2023-04-28T01:39:24;99692.81;;;4.58;99.87
47815;BME280;33579;50.058;18.130;2023-04-28T01:40:26;99700.81;;;4.55;100.00
47815;BME280;33579;50.058;18.130;2023-04-28T01:41:27;99696.16;;;4.44;100.00
47815;BME280;33579;50.058;18.130;2023-04-28T01:42:29;99688.75;;;4.36;100.00
47815;BME280;33579;50.058;18.130;2023-04-28T01:43:34;99694.81;;;4.36;100.00
47815;BME280;33579;50.058;18.130;2023-04-28T01:44:36;99692.22;;;4.36;100.00
47815;BME280;33579;50.058;18.130;2023-04-28T01:45:37;99683.78;;;4.31;100.00
47815;BME280;33579;50.058;18.130;2023-04-28T01:46:39;99687.19;;;4.33;100.00
47815;BME280;33579;50.058;18.130;2023-04-28T01:47:41;99686.50;;;4.30;100.00
47815;BME280;33579;50.058;18.130;2023-04-28T01:48:43;99683.13;;;4.28;100.00
47815;BME280;33579;50.058;18.130;2023-04-28T01:49:46;99683.03;;;4.29;100.00
47815;BME280;33579;50.058;18.130;2023-04-28T01:50:47;99685.41;;;4.34;100.00
47815;BME280;33579;50.058;18.130;2023-04-28T01:51:49;99676.75;;;4.33;100.00
47815;BME280;33579;50.058;18.130;2023-04-28T01:52:50;99681.81;;;4.36;100.00
47815;BME280;33579;50.058;18.130;2023-04-28T01:53:52;99684.66;;;4.32;100.00
47815;BME280;33579;50.058;18.130;2023-04-28T01:54:54;99683.47;;;4.38;100.00
47815;BME280;33579;50.058;18.130;2023-04-28T01:55:55;99678.19;;;4.39;100.00
47815;BME280;33579;50.058;18.130;2023-04-28T01:56:57;99678.09;;;4.41;100.00
47815;BME280;33579;50.058;18.130;2023-04-28T01:58:00;99674.56;;;4.42;100.00
47815;BME280;33579;50.058;18.130;2023-04-28T01:59:04;99674.50;;;4.43;100.00
47815;BME280;33579;50.058;18.130;2023-04-28T02:00:07;99682.81;;;4.50;100.00
47815;BME280;33579;50.058;18.130;2023-04-28T02:01:11;99677.78;;;4.47;100.00
47815;BME280;33579;50.058;18.130;2023-04-28T02:02:13;99685.59;;;4.47;100.00
47815;BME280;33579;50.058;18.130;2023-04-28T02:03:15;99678.69;;;4.30;100.00
47815;BME280;33579;50.058;18.130;2023-04-28T02:04:17;99684.56;;;4.00;100.00
47815;BME280;33579;50.058;18.130;2023-04-28T02:05:19;99683.84;;;3.80;100.00
47815;BME280;33579;50.058;18.130;2023-04-28T02:06:23;99688.66;;;3.70;100.00
47815;BME280;33579;50.058;18.130;2023-04-28T02:07:24;99677.97;;;3.59;100.00
47815;BME280;33579;50.058;18.130;2023-04-28T02:08:26;99675.50;;;3.56;100.00
47815;BME280;33579;50.058;18.130;2023-04-28T02:09:28;99677.56;;;3.49;100.00
47815;BME280;33579;50.058;18.130;2023-04-28T02:10:32;99679.88;;;3.37;100.00
47815;BME280;33579;50.058;18.130;2023-04-28T02:11:33;99679.63;;;3.25;100.00
47815;BME280;33579;50.058;18.130;2023-04-28T02:12:35;99679.25;;;3.32;100.00
47815;BME280;33579;50.058;18.130;2023-04-28T02:13:37;99680.78;;;3.36;100.00
47815;BME280;33579;50.058;18.130;2023-04-28T02:14:38;99672.47;;;3.47;100.00
47815;BME280;33579;50.058;18.130;2023-04-28T02:15:40;99672.78;;;3.59;100.00
47815;BME280;33579;50.058;18.130;2023-04-28T02:16:42;99671.47;;;3.68;100.00
47815;BME280;33579;50.058;18.130;2023-04-28T02:17:45;99675.28;;;3.78;100.00
47815;BME280;33579;50.058;18.130;2023-04-28T02:18:47;99671.59;;;3.82;100.00
47815;BME280;33579;50.058;18.130;2023-04-28T02:19:55;99670.59;;;3.85;100.00
47815;BME280;33579;50.058;18.130;2023-04-28T02:20:57;99673.72;;;3.91;100.00
47815;BME280;33579;50.058;18.130;2023-04-28T02:21:58;99672.19;;;3.87;100.00
47815;BME280;33579;50.058;18.130;2023-04-28T02:23:00;99674.03;;;3.85;100.00
47815;BME280;33579;50.058;18.130;2023-04-28T02:24:02;99669.28;;;3.76;100.00
47815;BME280;33579;50.058;18.130;2023-04-28T02:25:05;99675.19;;;3.79;100.00
47815;BME280;33579;50.058;18.130;2023-04-28T02:26:09;99664.53;;;3.84;100.00
47815;BME280;33579;50.058;18.130;2023-04-28T02:27:11;99661.69;;;3.89;100.00
47815;BME280;33579;50.058;18.130;2023-04-28T02:28:13;99665.75;;;3.94;100.00
47815;BME280;33579;50.058;18.130;2023-04-28T02:29:14;99667.38;;;3.97;100.00
47815;BME280;33579;50.058;18.130;2023-04-28T02:30:16;99660.31;;;3.99;100.00
47815;BME280;33579;50.058;18.130;2023-04-28T02:31:18;99663.59;;;4.03;100.00
47815;BME280;33579;50.058;18.130;2023-04-28T02:32:19;99667.66;;;4.08;100.00
47815;BME280;33579;50.058;18.130;2023-04-28T02:33:24;99664.06;;;3.93;100.00
47815;BME280;33579;50.058;18.130;2023-04-28T02:34:26;99663.56;;;3.69;100.00
47815;BME280;33579;50.058;18.130;2023-04-28T02:35:28;99669.53;;;3.54;100.00
47815;BME280;33579;50.058;18.130;2023-04-28T02:36:30;99668.91;;;3.31;100.00
47815;BME280;33579;50.058;18.130;2023-04-28T02:37:32;99658.13;;;3.21;100.00
47815;BME280;33579;50.058;18.130;2023-04-28T02:38:34;99670.28;;;3.20;100.00
47815;BME280;33579;50.058;18.130;2023-04-28T02:39:36;99667.34;;;3.28;100.00
47815;BME280;33579;50.058;18.130;2023-04-28T02:40:37;99668.91;;;3.31;100.00
47815;BME280;33579;50.058;18.130;2023-04-28T02:41:39;99673.69;;;3.22;100.00
47815;BME280;33579;50.058;18.130;2023-04-28T02:42:40;99671.28;;;3.18;100.00
47815;BME280;33579;50.058;18.130;2023-04-28T02:43:42;99673.19;;;3.14;100.00
47815;BME280;33579;50.058;18.130;2023-04-28T02:44:44;99669.75;;;3.14;100.00
47815;BME280;33579;50.058;18.130;2023-04-28T02:45:45;99668.47;;;3.22;100.00
47815;BME280;33579;50.058;18.130;2023-04-28T02:46:47;99667.47;;;3.25;100.00
47815;BME280;33579;50.058;18.130;2023-04-28T02:47:49;99675.13;;;3.28;100.00
47815;BME280;33579;50.058;18.130;2023-04-28T02:48:50;99667.19;;;3.31;100.00
47815;BME280;33579;50.058;18.130;2023-04-28T02:49:52;99670.69;;;3.30;100.00
47815;BME280;33579;50.058;18.130;2023-04-28T02:50:54;99669.63;;;3.34;100.00
47815;BME280;33579;50.058;18.130;2023-04-28T02:51:56;99672.22;;;3.34;100.00
47815;BME280;33579;50.058;18.130;2023-04-28T02:52:57;99669.56;;;3.36;100.00
47815;BME280;33579;50.058;18.130;2023-04-28T02:53:59;99672.06;;;3.37;100.00
47815;BME280;33579;50.058;18.130;2023-04-28T02:55:00;99669.00;;;3.29;100.00
47815;BME280;33579;50.058;18.130;2023-04-28T02:56:02;99673.38;;;3.29;100.00
47815;BME280;33579;50.058;18.130;2023-04-28T02:57:05;99670.00;;;3.27;100.00
47815;BME280;33579;50.058;18.130;2023-04-28T02:58:07;99664.63;;;3.30;100.00
47815;BME280;33579;50.058;18.130;2023-04-28T02:59:09;99674.88;;;3.33;100.00
47815;BME280;33579;50.058;18.130;2023-04-28T03:00:11;99670.00;;;3.27;100.00
47815;BME280;33579;50.058;18.130;2023-04-28T03:01:19;99665.34;;;3.33;100.00
47815;BME280;33579;50.058;18.130;2023-04-28T03:02:21;99660.38;;;3.46;100.00
47815;BME280;33579;50.058;18.130;2023-04-28T03:03:23;99665.19;;;3.54;100.00
47815;BME280;33579;50.058;18.130;2023-04-28T03:04:25;99668.47;;;3.40;100.00
47815;BME280;33579;50.058;18.130;2023-04-28T03:05:26;99664.66;;;3.47;100.00
47815;BME280;33579;50.058;18.130;2023-04-28T03:06:28;99667.56;;;3.41;100.00
47815;BME280;33579;50.058;18.130;2023-04-28T03:07:30;99666.25;;;3.32;100.00
47815;BME280;33579;50.058;18.130;2023-04-28T03:08:31;99665.63;;;3.27;100.00
47815;BME280;33579;50.058;18.130;2023-04-28T03:09:33;99660.28;;;3.30;100.00
47815;BME280;33579;50.058;18.130;2023-04-28T03:10:35;99658.94;;;3.41;100.00
47815;BME280;33579;50.058;18.130;2023-04-28T03:11:37;99652.56;;;3.46;100.00
47815;BME280;33579;50.058;18.130;2023-04-28T03:12:39;99656.84;;;3.47;100.00
47815;BME280;33579;50.058;18.130;2023-04-28T03:13:40;99657.00;;;3.44;100.00
47815;BME280;33579;50.058;18.130;2023-04-28T03:14:42;99654.25;;;3.47;100.00
47815;BME280;33579;50.058;18.130;2023-04-28T03:15:43;99656.06;;;3.45;100.00
47815;BME280;33579;50.058;18.130;2023-04-28T03:16:45;99653.16;;;3.51;100.00
47815;BME280;33579;50.058;18.130;2023-04-28T03:17:48;99653.63;;;3.42;100.00
47815;BME280;33579;50.058;18.130;2023-04-28T03:18:49;99649.34;;;3.41;100.00
47815;BME280;33579;50.058;18.130;2023-04-28T03:19:52;99653.09;;;3.35;100.00
47815;BME280;33579;50.058;18.130;2023-04-28T03:20:54;99650.66;;;3.32;100.00
47815;BME280;33579;50.058;18.130;2023-04-28T03:21:55;99654.78;;;3.36;100.00
47815;BME280;33579;50.058;18.130;2023-04-28T03:22:57;99651.34;;;3.36;100.00
47815;BME280;33579;50.058;18.130;2023-04-28T03:23:59;99653.72;;;3.41;100.00
47815;BME280;33579;50.058;18.130;2023-04-28T03:25:01;99650.25;;;3.40;100.00
47815;BME280;33579;50.058;18.130;2023-04-28T03:26:07;99651.94;;;3.41;100.00
47815;BME280;33579;50.058;18.130;2023-04-28T03:27:09;99646.50;;;3.46;100.00
47815;BME280;33579;50.058;18.130;2023-04-28T03:28:11;99653.25;;;3.50;100.00
47815;BME280;33579;50.058;18.130;2023-04-28T03:29:13;99655.22;;;3.62;100.00
47815;BME280;33579;50.058;18.130;2023-04-28T03:30:15;99652.22;;;3.70;100.00
47815;BME280;33579;50.058;18.130;2023-04-28T03:31:16;99649.00;;;3.83;100.00
47815;BME280;33579;50.058;18.130;2023-04-28T03:32:18;99646.94;;;3.89;100.00
47815;BME280;33579;50.058;18.130;2023-04-28T03:33:20;99651.50;;;4.02;100.00
47815;BME280;33579;50.058;18.130;2023-04-28T03:34:22;99653.84;;;4.06;100.00
47815;BME280;33579;50.058;18.130;2023-04-28T03:35:23;99655.38;;;4.11;100.00
47815;BME280;33579;50.058;18.130;2023-04-28T03:36:25;99658.91;;;4.10;100.00
47815;BME280;33579;50.058;18.130;2023-04-28T03:37:28;99648.81;;;4.03;100.00
47815;BME280;33579;50.058;18.130;2023-04-28T03:38:29;99652.72;;;3.94;100.00
47815;BME280;33579;50.058;18.130;2023-04-28T03:39:31;99655.06;;;3.83;100.00
47815;BME280;33579;50.058;18.130;2023-04-28T03:40:33;99650.47;;;3.71;100.00
47815;BME280;33579;50.058;18.130;2023-04-28T03:41:58;99652.22;;;3.70;100.00
47815;BME280;33579;50.058;18.130;2023-04-28T03:43:18;99645.63;;;3.80;100.00
47815;BME280;33579;50.058;18.130;2023-04-28T03:44:34;99655.91;;;3.84;100.00
47815;BME280;33579;50.058;18.130;2023-04-28T03:45:37;99651.41;;;3.70;100.00
47815;BME280;33579;50.058;18.130;2023-04-28T03:46:39;99645.84;;;3.60;100.00
47815;BME280;33579;50.058;18.130;2023-04-28T03:47:40;99648.19;;;3.64;100.00
47815;BME280;33579;50.058;18.130;2023-04-28T03:48:42;99653.31;;;3.66;100.00
47815;BME280;33579;50.058;18.130;2023-04-28T03:49:44;99650.13;;;3.61;100.00
47815;BME280;33579;50.058;18.130;2023-04-28T03:50:46;99655.38;;;3.59;100.00
47815;BME280;33579;50.058;18.130;2023-04-28T03:51:48;99654.69;;;3.56;100.00
47815;BME280;33579;50.058;18.130;2023-04-28T03:52:50;99652.19;;;3.54;100.00
47815;BME280;33579;50.058;18.130;2023-04-28T03:53:53;99653.69;;;3.58;100.00
47815;BME280;33579;50.058;18.130;2023-04-28T03:54:55;99651.69;;;3.63;100.00
47815;BME280;33579;50.058;18.130;2023-04-28T03:55:56;99652.31;;;3.69;100.00
47815;BME280;33579;50.058;18.130;2023-04-28T03:56:58;99653.00;;;3.72;100.00
47815;BME280;33579;50.058;18.130;2023-04-28T03:58:00;99649.38;;;3.75;100.00
47815;BME280;33579;50.058;18.130;2023-04-28T03:59:01;99656.66;;;3.86;100.00
47815;BME280;33579;50.058;18.130;2023-04-28T04:00:03;99648.44;;;3.93;100.00
47815;BME280;33579;50.058;18.130;2023-04-28T04:01:15;99655.16;;;3.98;100.00
47815;BME280;33579;50.058;18.130;2023-04-28T04:02:17;99651.88;;;3.94;100.00
47815;BME280;33579;50.058;18.130;2023-04-28T04:03:19;99654.66;;;3.91;100.00
47815;BME280;33579;50.058;18.130;2023-04-28T04:04:21;99657.09;;;3.94;100.00
47815;BME280;33579;50.058;18.130;2023-04-28T04:05:23;99656.84;;;3.99;100.00
47815;BME280;33579;50.058;18.130;2023-04-28T04:06:25;99658.53;;;4.00;100.00
47815;BME280;33579;50.058;18.130;2023-04-28T04:07:27;99667.66;;;4.08;100.00
47815;BME280;33579;50.058;18.130;2023-04-28T04:08:29;99667.25;;;4.16;100.00
47815;BME280;33579;50.058;18.130;2023-04-28T04:09:31;99658.66;;;4.14;100.00
47815;BME280;33579;50.058;18.130;2023-04-28T04:10:33;99667.06;;;4.19;100.00
47815;BME280;33579;50.058;18.130;2023-04-28T04:11:35;99658.91;;;4.26;100.00
47815;BME280;33579;50.058;18.130;2023-04-28T04:12:36;99660.28;;;4.33;100.00
47815;BME280;33579;50.058;18.130;2023-04-28T04:13:38;99661.97;;;4.34;100.00
47815;BME280;33579;50.058;18.130;2023-04-28T04:14:43;99658.13;;;4.41;100.00
47815;BME280;33579;50.058;18.130;2023-04-28T04:15:45;99665.41;;;4.50;100.00
47815;BME280;33579;50.058;18.130;2023-04-28T04:16:47;99668.44;;;4.59;100.00
47815;BME280;33579;50.058;18.130;2023-04-28T04:17:49;99663.75;;;4.66;100.00
47815;BME280;33579;50.058;18.130;2023-04-28T04:18:51;99660.97;;;4.69;100.00
47815;BME280;33579;50.058;18.130;2023-04-28T04:20:07;99670.31;;;4.57;100.00
47815;BME280;33579;50.058;18.130;2023-04-28T04:21:08;99666.09;;;4.54;100.00
47815;BME280;33579;50.058;18.130;2023-04-28T04:22:10;99666.34;;;4.49;100.00
47815;BME280;33579;50.058;18.130;2023-04-28T04:23:12;99666.84;;;4.40;100.00
47815;BME280;33579;50.058;18.130;2023-04-28T04:24:13;99673.06;;;4.38;100.00
47815;BME280;33579;50.058;18.130;2023-04-28T04:25:16;99675.31;;;4.44;100.00
47815;BME280;33579;50.058;18.130;2023-04-28T04:26:21;99673.63;;;4.43;100.00
47815;BME280;33579;50.058;18.130;2023-04-28T04:27:24;99687.31;;;4.30;100.00
47815;BME280;33579;50.058;18.130;2023-04-28T04:28:26;99678.50;;;4.33;100.00
47815;BME280;33579;50.058;18.130;2023-04-28T04:29:37;99677.09;;;4.43;100.00
47815;BME280;33579;50.058;18.130;2023-04-28T04:30:45;99673.66;;;4.59;100.00
47815;BME280;33579;50.058;18.130;2023-04-28T04:31:50;99675.94;;;4.65;100.00
47815;BME280;33579;50.058;18.130;2023-04-28T04:32:53;99670.31;;;4.73;100.00
47815;BME280;33579;50.058;18.130;2023-04-28T04:33:58;99675.09;;;4.81;100.00
47815;BME280;33579;50.058;18.130;2023-04-28T04:35:00;99670.63;;;4.83;100.00
47815;BME280;33579;50.058;18.130;2023-04-28T04:36:03;99665.91;;;4.89;100.00
47815;BME280;33579;50.058;18.130;2023-04-28T04:37:05;99660.19;;;4.99;100.00
47815;BME280;33579;50.058;18.130;2023-04-28T04:38:10;99669.34;;;5.06;100.00
47815;BME280;33579;50.058;18.130;2023-04-28T04:39:11;99669.06;;;5.11;100.00
47815;BME280;33579;50.058;18.130;2023-04-28T04:40:13;99665.28;;;5.16;100.00
47815;BME280;33579;50.058;18.130;2023-04-28T04:41:21;99665.19;;;5.18;100.00
47815;BME280;33579;50.058;18.130;2023-04-28T04:42:30;99662.59;;;5.18;100.00
47815;BME280;33579;50.058;18.130;2023-04-28T04:43:38;99673.69;;;5.22;100.00
47815;BME280;33579;50.058;18.130;2023-04-28T04:44:40;99670.91;;;5.25;100.00
47815;BME280;33579;50.058;18.130;2023-04-28T04:45:46;99666.44;;;5.27;100.00
47815;BME280;33579;50.058;18.130;2023-04-28T04:46:48;99670.34;;;5.19;100.00
47815;BME280;33579;50.058;18.130;2023-04-28T04:47:52;99669.22;;;5.24;100.00
47815;BME280;33579;50.058;18.130;2023-04-28T04:48:54;99671.66;;;5.27;100.00
47815;BME280;33579;50.058;18.130;2023-04-28T04:49:55;99667.09;;;5.30;100.00
47815;BME280;33579;50.058;18.130;2023-04-28T04:50:57;99669.47;;;5.35;100.00
47815;BME280;33579;50.058;18.130;2023-04-28T04:51:59;99669.28;;;5.38;100.00
47815;BME280;33579;50.058;18.130;2023-04-28T04:53:02;99670.94;;;5.39;100.00
47815;BME280;33579;50.058;18.130;2023-04-28T04:54:04;99667.34;;;5.42;100.00
47815;BME280;33579;50.058;18.130;2023-04-28T04:55:06;99669.09;;;5.41;100.00
47815;BME280;33579;50.058;18.130;2023-04-28T04:56:08;99670.59;;;5.45;100.00
47815;BME280;33579;50.058;18.130;2023-04-28T04:57:12;99665.19;;;5.48;100.00
47815;BME280;33579;50.058;18.130;2023-04-28T04:58:34;99673.84;;;5.49;100.00
47815;BME280;33579;50.058;18.130;2023-04-28T04:59:57;99672.84;;;5.52;100.00
47815;BME280;33579;50.058;18.130;2023-04-28T05:00:59;99659.91;;;5.50;100.00
47815;BME280;33579;50.058;18.130;2023-04-28T05:02:01;99670.34;;;5.50;100.00
47815;BME280;33579;50.058;18.130;2023-04-28T05:03:03;99673.50;;;5.55;100.00
47815;BME280;33579;50.058;18.130;2023-04-28T05:04:05;99661.78;;;5.62;100.00
47815;BME280;33579;50.058;18.130;2023-04-28T05:05:08;99667.56;;;5.68;100.00
47815;BME280;33579;50.058;18.130;2023-04-28T05:06:42;99663.75;;;5.73;100.00
47815;BME280;33579;50.058;18.130;2023-04-28T05:07:45;99664.91;;;5.84;100.00
47815;BME280;33579;50.058;18.130;2023-04-28T05:08:46;99672.34;;;5.90;100.00
47815;BME280;33579;50.058;18.130;2023-04-28T05:09:48;99666.84;;;5.95;100.00
47815;BME280;33579;50.058;18.130;2023-04-28T05:10:50;99660.97;;;5.91;100.00
47815;BME280;33579;50.058;18.130;2023-04-28T05:11:53;99669.47;;;5.95;100.00
47815;BME280;33579;50.058;18.130;2023-04-28T05:12:54;99662.56;;;5.94;100.00
47815;BME280;33579;50.058;18.130;2023-04-28T05:13:56;99665.19;;;5.94;100.00
47815;BME280;33579;50.058;18.130;2023-04-28T05:14:58;99665.19;;;5.94;100.00
47815;BME280;33579;50.058;18.130;2023-04-28T05:16:00;99663.31;;;5.96;100.00
47815;BME280;33579;50.058;18.130;2023-04-28T05:17:12;99653.00;;;6.09;100.00
47815;BME280;33579;50.058;18.130;2023-04-28T05:18:15;99663.72;;;6.18;100.00
47815;BME280;33579;50.058;18.130;2023-04-28T05:19:17;99662.69;;;6.21;100.00
47815;BME280;33579;50.058;18.130;2023-04-28T05:20:19;99658.03;;;6.12;100.00
47815;BME280;33579;50.058;18.130;2023-04-28T05:21:20;99654.75;;;6.08;100.00
47815;BME280;33579;50.058;18.130;2023-04-28T05:22:22;99663.91;;;6.15;100.00
47815;BME280;33579;50.058;18.130;2023-04-28T05:23:23;99657.47;;;6.21;100.00
47815;BME280;33579;50.058;18.130;2023-04-28T05:24:26;99654.94;;;6.19;100.00
47815;BME280;33579;50.058;18.130;2023-04-28T05:25:28;99650.66;;;6.18;100.00
47815;BME280;33579;50.058;18.130;2023-04-28T05:26:30;99653.84;;;6.24;100.00
47815;BME280;33579;50.058;18.130;2023-04-28T05:27:37;99655.13;;;6.31;100.00
47815;BME280;33579;50.058;18.130;2023-04-28T05:28:39;99646.22;;;6.48;100.00
47815;BME280;33579;50.058;18.130;2023-04-28T05:29:42;99644.53;;;6.61;100.00